sensor_id;sensor_type;location;lat;lon;timestamp;P1;durP1;ratioP1;P2;durP2;ratioP2
15616;SDS011;7908;51.688;7.130;2023-08-01T00:01:24;2.73;;;1.90;;
15616;SDS011;7908;51.688;7.130;2023-08-01T00:03:53;2.13;;;1.93;;
15616;SDS011;7908;51.688;7.130;2023-08-01T00:06:21;1.80;;;1.50;;
15616;SDS011;7908;51.688;7.130;2023-08-01T00:08:51;3.90;;;1.83;;
15616;SDS011;7908;51.688;7.130;2023-08-01T00:11:21;1.73;;;1.27;;
15616;SDS011;7908;51.688;7.130;2023-08-01T00:13:51;3.23;;;1.93;;
15616;SDS011;7908;51.688;7.130;2023-08-01T00:16:19;2.93;;;2.10;;
15616;SDS011;7908;51.688;7.130;2023-08-01T00:18:48;3.43;;;1.90;;
15616;SDS011;7908;51.688;7.130;2023-08-01T00:21:17;2.30;;;1.80;;
15616;SDS011;7908;51.688;7.130;2023-08-01T00:23:46;3.43;;;1.90;;
15616;SDS011;7908;51.688;7.130;2023-08-01T00:26:14;2.03;;;1.67;;
15616;SDS011;7908;51.688;7.130;2023-08-01T00:28:44;1.83;;;1.73;;
15616;SDS011;7908;51.688;7.130;2023-08-01T00:31:13;2.97;;;1.80;;
15616;SDS011;7908;51.688;7.130;2023-08-01T00:33:42;2.00;;;1.80;;
15616;SDS011;7908;51.688;7.130;2023-08-01T00:36:11;2.33;;;1.90;;
15616;SDS011;7908;51.688;7.130;2023-08-01T00:38:40;1.73;;;1.60;;
15616;SDS011;7908;51.688;7.130;2023-08-01T00:41:10;2.37;;;1.90;;
15616;SDS011;7908;51.688;7.130;2023-08-01T00:43:39;3.30;;;2.00;;
15616;SDS011;7908;51.688;7.130;2023-08-01T00:46:09;4.63;;;2.40;;
15616;SDS011;7908;51.688;7.130;2023-08-01T00:48:38;3.13;;;2.20;;
15616;SDS011;7908;51.688;7.130;2023-08-01T00:51:07;3.80;;;2.20;;
15616;SDS011;7908;51.688;7.130;2023-08-01T00:53:38;3.63;;;2.20;;
15616;SDS011;7908;51.688;7.130;2023-08-01T00:56:08;3.27;;;2.40;;
15616;SDS011;7908;51.688;7.130;2023-08-01T00:58:37;3.03;;;2.30;;
15616;SDS011;7908;51.688;7.130;2023-08-01T01:01:05;3.47;;;1.93;;
15616;SDS011;7908;51.688;7.130;2023-08-01T01:03:35;3.27;;;1.93;;
15616;SDS011;7908;51.688;7.130;2023-08-01T01:06:06;3.20;;;2.13;;
15616;SDS011;7908;51.688;7.130;2023-08-01T01:08:42;2.50;;;2.30;;
15616;SDS011;7908;51.688;7.130;2023-08-01T01:11:11;2.37;;;2.17;;
15616;SDS011;7908;51.688;7.130;2023-08-01T01:13:40;3.73;;;2.40;;
15616;SDS011;7908;51.688;7.130;2023-08-01T01:16:09;3.30;;;2.50;;
15616;SDS011;7908;51.688;7.130;2023-08-01T01:18:40;4.73;;;2.77;;
15616;SDS011;7908;51.688;7.130;2023-08-01T01:24:27;2.67;;;2.47;;
15616;SDS011;7908;51.688;7.130;2023-08-01T01:26:57;4.23;;;2.70;;
15616;SDS011;7908;51.688;7.130;2023-08-01T01:29:26;3.20;;;2.50;;
15616;SDS011;7908;51.688;7.130;2023-08-01T01:31:55;3.37;;;2.83;;
15616;SDS011;7908;51.688;7.130;2023-08-01T01:34:25;5.33;;;3.03;;
15616;SDS011;7908;51.688;7.130;2023-08-01T01:36:55;4.50;;;3.17;;
15616;SDS011;7908;51.688;7.130;2023-08-01T01:39:24;5.50;;;3.03;;
15616;SDS011;7908;51.688;7.130;2023-08-01T01:41:52;4.37;;;2.97;;
15616;SDS011;7908;51.688;7.130;2023-08-01T01:44:21;6.07;;;3.60;;
15616;SDS011;7908;51.688;7.130;2023-08-01T01:46:50;6.97;;;3.60;;
15616;SDS011;7908;51.688;7.130;2023-08-01T01:49:19;4.47;;;3.40;;
15616;SDS011;7908;51.688;7.130;2023-08-01T01:51:48;8.30;;;3.63;;
15616;SDS011;7908;51.688;7.130;2023-08-01T01:54:18;8.13;;;4.00;;
15616;SDS011;7908;51.688;7.130;2023-08-01T01:56:47;7.70;;;4.13;;
15616;SDS011;7908;51.688;7.130;2023-08-01T01:59:15;6.63;;;3.80;;
15616;SDS011;7908;51.688;7.130;2023-08-01T02:01:44;8.03;;;4.20;;
15616;SDS011;7908;51.688;7.130;2023-08-01T02:04:13;6.03;;;4.47;;
15616;SDS011;7908;51.688;7.130;2023-08-01T02:06:41;5.73;;;4.03;;
15616;SDS011;7908;51.688;7.130;2023-08-01T02:09:10;8.47;;;4.90;;
15616;SDS011;7908;51.688;7.130;2023-08-01T02:11:40;7.90;;;4.90;;
15616;SDS011;7908;51.688;7.130;2023-08-01T02:14:09;12.43;;;5.20;;
15616;SDS011;7908;51.688;7.130;2023-08-01T02:16:38;12.57;;;5.67;;
15616;SDS011;7908;51.688;7.130;2023-08-01T02:19:07;9.03;;;5.30;;
15616;SDS011;7908;51.688;7.130;2023-08-01T02:21:35;8.27;;;5.53;;
15616;SDS011;7908;51.688;7.130;2023-08-01T02:24:04;8.93;;;5.60;;
15616;SDS011;7908;51.688;7.130;2023-08-01T02:26:33;9.83;;;5.67;;
15616;SDS011;7908;51.688;7.130;2023-08-01T02:29:03;7.33;;;5.80;;
15616;SDS011;7908;51.688;7.130;2023-08-01T02:31:31;12.97;;;6.33;;
15616;SDS011;7908;51.688;7.130;2023-08-01T02:34:00;9.63;;;6.07;;
15616;SDS011;7908;51.688;7.130;2023-08-01T02:36:29;12.57;;;6.53;;
15616;SDS011;7908;51.688;7.130;2023-08-01T02:38:58;10.60;;;6.60;;
15616;SDS011;7908;51.688;7.130;2023-08-01T02:41:26;8.63;;;6.60;;
15616;SDS011;7908;51.688;7.130;2023-08-01T02:43:55;14.10;;;7.57;;
15616;SDS011;7908;51.688;7.130;2023-08-01T02:46:25;13.10;;;7.53;;
15616;SDS011;7908;51.688;7.130;2023-08-01T02:48:56;12.07;;;7.80;;
15616;SDS011;7908;51.688;7.130;2023-08-01T02:51:24;14.07;;;9.43;;
15616;SDS011;7908;51.688;7.130;2023-08-01T02:53:53;14.90;;;9.10;;
15616;SDS011;7908;51.688;7.130;2023-08-01T02:56:22;13.90;;;8.87;;
15616;SDS011;7908;51.688;7.130;2023-08-01T02:58:51;16.67;;;10.10;;
15616;SDS011;7908;51.688;7.130;2023-08-01T03:01:19;17.07;;;10.83;;
15616;SDS011;7908;51.688;7.130;2023-08-01T03:03:50;16.00;;;10.43;;
15616;SDS011;7908;51.688;7.130;2023-08-01T03:06:18;16.23;;;11.43;;
15616;SDS011;7908;51.688;7.130;2023-08-01T03:08:47;17.03;;;10.93;;
15616;SDS011;7908;51.688;7.130;2023-08-01T03:11:16;18.17;;;11.13;;
15616;SDS011;7908;51.688;7.130;2023-08-01T03:13:45;19.60;;;11.23;;
15616;SDS011;7908;51.688;7.130;2023-08-01T03:16:13;16.07;;;11.60;;
15616;SDS011;7908;51.688;7.130;2023-08-01T03:18:42;20.90;;;11.80;;
15616;SDS011;7908;51.688;7.130;2023-08-01T03:21:12;18.83;;;11.80;;
15616;SDS011;7908;51.688;7.130;2023-08-01T03:23:41;22.03;;;13.30;;
15616;SDS011;7908;51.688;7.130;2023-08-01T03:26:10;22.97;;;13.17;;
15616;SDS011;7908;51.688;7.130;2023-08-01T03:28:39;22.23;;;14.30;;
15616;SDS011;7908;51.688;7.130;2023-08-01T03:31:08;28.47;;;15.90;;
15616;SDS011;7908;51.688;7.130;2023-08-01T03:33:37;27.63;;;15.07;;
15616;SDS011;7908;51.688;7.130;2023-08-01T03:36:05;27.60;;;16.20;;
15616;SDS011;7908;51.688;7.130;2023-08-01T03:38:35;31.03;;;17.10;;
15616;SDS011;7908;51.688;7.130;2023-08-01T03:41:07;28.07;;;17.07;;
15616;SDS011;7908;51.688;7.130;2023-08-01T03:43:36;26.13;;;16.37;;
15616;SDS011;7908;51.688;7.130;2023-08-01T03:46:05;29.57;;;18.37;;
15616;SDS011;7908;51.688;7.130;2023-08-01T03:48:35;32.50;;;19.03;;
15616;SDS011;7908;51.688;7.130;2023-08-01T03:51:04;29.60;;;18.83;;
15616;SDS011;7908;51.688;7.130;2023-08-01T03:53:32;33.03;;;20.63;;
15616;SDS011;7908;51.688;7.130;2023-08-01T03:56:02;28.23;;;19.37;;
15616;SDS011;7908;51.688;7.130;2023-08-01T03:58:31;28.77;;;20.20;;
15616;SDS011;7908;51.688;7.130;2023-08-01T04:01:00;29.50;;;19.27;;
15616;SDS011;7908;51.688;7.130;2023-08-01T04:03:28;31.37;;;19.53;;
15616;SDS011;7908;51.688;7.130;2023-08-01T04:05:58;29.57;;;17.60;;
15616;SDS011;7908;51.688;7.130;2023-08-01T04:08:26;29.67;;;19.00;;
15616;SDS011;7908;51.688;7.130;2023-08-01T04:10:55;27.17;;;18.80;;
15616;SDS011;7908;51.688;7.130;2023-08-01T04:13:25;30.03;;;19.40;;
15616;SDS011;7908;51.688;7.130;2023-08-01T04:15:54;28.17;;;17.30;;
15616;SDS011;7908;51.688;7.130;2023-08-01T04:18:22;21.13;;;15.63;;
15616;SDS011;7908;51.688;7.130;2023-08-01T04:20:51;21.67;;;15.67;;
15616;SDS011;7908;51.688;7.130;2023-08-01T04:23:20;28.97;;;16.03;;
15616;SDS011;7908;51.688;7.130;2023-08-01T04:25:48;23.03;;;15.50;;
15616;SDS011;7908;51.688;7.130;2023-08-01T04:28:17;22.90;;;15.43;;
15616;SDS011;7908;51.688;7.130;2023-08-01T04:30:51;23.23;;;15.30;;
15616;SDS011;7908;51.688;7.130;2023-08-01T04:33:20;24.23;;;16.23;;
15616;SDS011;7908;51.688;7.130;2023-08-01T04:35:49;30.27;;;18.27;;
15616;SDS011;7908;51.688;7.130;2023-08-01T04:38:17;28.03;;;18.33;;
15616;SDS011;7908;51.688;7.130;2023-08-01T04:40:46;31.40;;;18.93;;
15616;SDS011;7908;51.688;7.130;2023-08-01T04:43:15;31.87;;;19.33;;
15616;SDS011;7908;51.688;7.130;2023-08-01T04:45:43;35.37;;;19.63;;
15616;SDS011;7908;51.688;7.130;2023-08-01T04:48:14;31.03;;;19.50;;
15616;SDS011;7908;51.688;7.130;2023-08-01T04:50:44;28.77;;;18.83;;
15616;SDS011;7908;51.688;7.130;2023-08-01T04:53:13;32.80;;;19.57;;
15616;SDS011;7908;51.688;7.130;2023-08-01T04:55:42;32.80;;;19.10;;
15616;SDS011;7908;51.688;7.130;2023-08-01T04:58:10;29.30;;;19.30;;
15616;SDS011;7908;51.688;7.130;2023-08-01T05:00:40;31.47;;;20.37;;
15616;SDS011;7908;51.688;7.130;2023-08-01T05:03:10;34.53;;;19.57;;
15616;SDS011;7908;51.688;7.130;2023-08-01T05:05:40;36.87;;;20.93;;
15616;SDS011;7908;51.688;7.130;2023-08-01T05:08:09;33.30;;;19.33;;
15616;SDS011;7908;51.688;7.130;2023-08-01T05:10:38;31.00;;;18.90;;
15616;SDS011;7908;51.688;7.130;2023-08-01T05:13:07;40.80;;;19.70;;
15616;SDS011;7908;51.688;7.130;2023-08-01T05:15:35;30.70;;;19.17;;
15616;SDS011;7908;51.688;7.130;2023-08-01T05:18:04;35.23;;;19.03;;
15616;SDS011;7908;51.688;7.130;2023-08-01T05:20:33;37.20;;;21.00;;
15616;SDS011;7908;51.688;7.130;2023-08-01T05:23:03;41.57;;;20.13;;
15616;SDS011;7908;51.688;7.130;2023-08-01T05:25:32;36.30;;;20.47;;
15616;SDS011;7908;51.688;7.130;2023-08-01T05:28:01;30.60;;;19.40;;
15616;SDS011;7908;51.688;7.130;2023-08-01T05:30:29;31.67;;;19.27;;
15616;SDS011;7908;51.688;7.130;2023-08-01T05:32:58;30.13;;;20.30;;
15616;SDS011;7908;51.688;7.130;2023-08-01T05:35:29;33.93;;;19.60;;
15616;SDS011;7908;51.688;7.130;2023-08-01T05:37:58;33.93;;;20.43;;
15616;SDS011;7908;51.688;7.130;2023-08-01T05:40:29;32.53;;;21.07;;
15616;SDS011;7908;51.688;7.130;2023-08-01T05:42:59;35.90;;;20.37;;
15616;SDS011;7908;51.688;7.130;2023-08-01T05:45:30;34.53;;;20.57;;
15616;SDS011;7908;51.688;7.130;2023-08-01T05:48:01;31.47;;;20.63;;
15616;SDS011;7908;51.688;7.130;2023-08-01T05:50:30;37.83;;;21.47;;
15616;SDS011;7908;51.688;7.130;2023-08-01T05:52:58;30.30;;;20.00;;
15616;SDS011;7908;51.688;7.130;2023-08-01T05:55:29;33.37;;;19.37;;
15616;SDS011;7908;51.688;7.130;2023-08-01T05:57:58;33.53;;;19.93;;
15616;SDS011;7908;51.688;7.130;2023-08-01T06:00:28;33.60;;;20.30;;
15616;SDS011;7908;51.688;7.130;2023-08-01T06:02:57;23.37;;;17.90;;
15616;SDS011;7908;51.688;7.130;2023-08-01T06:05:27;34.43;;;21.03;;
15616;SDS011;7908;51.688;7.130;2023-08-01T06:07:57;28.50;;;21.57;;
15616;SDS011;7908;51.688;7.130;2023-08-01T06:10:26;31.20;;;21.40;;
15616;SDS011;7908;51.688;7.130;2023-08-01T06:12:58;31.47;;;20.33;;
15616;SDS011;7908;51.688;7.130;2023-08-01T06:15:28;28.43;;;19.53;;
15616;SDS011;7908;51.688;7.130;2023-08-01T06:17:59;32.00;;;21.00;;
15616;SDS011;7908;51.688;7.130;2023-08-01T06:20:32;38.47;;;23.53;;
15616;SDS011;7908;51.688;7.130;2023-08-01T06:23:02;46.90;;;25.50;;
15616;SDS011;7908;51.688;7.130;2023-08-01T06:25:34;36.50;;;23.13;;
15616;SDS011;7908;51.688;7.130;2023-08-01T06:28:04;37.07;;;22.80;;
15616;SDS011;7908;51.688;7.130;2023-08-01T06:30:34;30.90;;;21.37;;
15616;SDS011;7908;51.688;7.130;2023-08-01T06:33:03;33.97;;;22.17;;
15616;SDS011;7908;51.688;7.130;2023-08-01T06:35:32;34.73;;;23.07;;
15616;SDS011;7908;51.688;7.130;2023-08-01T06:38:05;39.20;;;22.93;;
15616;SDS011;7908;51.688;7.130;2023-08-01T06:40:34;30.20;;;22.93;;
15616;SDS011;7908;51.688;7.130;2023-08-01T06:43:05;33.43;;;22.97;;
15616;SDS011;7908;51.688;7.130;2023-08-01T06:45:34;33.27;;;23.07;;
15616;SDS011;7908;51.688;7.130;2023-08-01T06:48:03;32.73;;;22.57;;
15616;SDS011;7908;51.688;7.130;2023-08-01T06:50:37;31.57;;;21.33;;
15616;SDS011;7908;51.688;7.130;2023-08-01T06:53:08;30.37;;;20.50;;
15616;SDS011;7908;51.688;7.130;2023-08-01T06:55:39;33.47;;;21.83;;
15616;SDS011;7908;51.688;7.130;2023-08-01T06:58:10;30.40;;;19.67;;
15616;SDS011;7908;51.688;7.130;2023-08-01T07:00:38;29.77;;;20.10;;
15616;SDS011;7908;51.688;7.130;2023-08-01T07:03:07;29.10;;;20.13;;
15616;SDS011;7908;51.688;7.130;2023-08-01T07:05:36;25.77;;;18.07;;
15616;SDS011;7908;51.688;7.130;2023-08-01T07:08:06;22.97;;;17.20;;
15616;SDS011;7908;51.688;7.130;2023-08-01T07:10:35;25.97;;;16.30;;
15616;SDS011;7908;51.688;7.130;2023-08-01T07:13:09;22.53;;;15.77;;
15616;SDS011;7908;51.688;7.130;2023-08-01T07:15:39;22.53;;;15.10;;
15616;SDS011;7908;51.688;7.130;2023-08-01T07:18:08;24.13;;;15.17;;
15616;SDS011;7908;51.688;7.130;2023-08-01T07:20:39;20.53;;;14.17;;
15616;SDS011;7908;51.688;7.130;2023-08-01T07:23:08;23.03;;;14.53;;
15616;SDS011;7908;51.688;7.130;2023-08-01T07:25:38;20.23;;;13.70;;
15616;SDS011;7908;51.688;7.130;2023-08-01T07:28:10;21.67;;;13.23;;
15616;SDS011;7908;51.688;7.130;2023-08-01T07:30:42;16.47;;;13.07;;
15616;SDS011;7908;51.688;7.130;2023-08-01T07:33:11;20.50;;;12.47;;
15616;SDS011;7908;51.688;7.130;2023-08-01T07:35:46;16.00;;;12.23;;
15616;SDS011;7908;51.688;7.130;2023-08-01T07:38:20;15.10;;;10.47;;
15616;SDS011;7908;51.688;7.130;2023-08-01T07:40:54;17.67;;;11.50;;
15616;SDS011;7908;51.688;7.130;2023-08-01T07:43:25;15.00;;;11.33;;
15616;SDS011;7908;51.688;7.130;2023-08-01T07:45:57;18.20;;;11.43;;
15616;SDS011;7908;51.688;7.130;2023-08-01T07:48:27;20.00;;;11.13;;
15616;SDS011;7908;51.688;7.130;2023-08-01T07:50:59;17.60;;;11.43;;
15616;SDS011;7908;51.688;7.130;2023-08-01T07:53:30;18.20;;;11.80;;
15616;SDS011;7908;51.688;7.130;2023-08-01T07:55:59;17.63;;;11.83;;
15616;SDS011;7908;51.688;7.130;2023-08-01T07:58:31;17.30;;;9.80;;
15616;SDS011;7908;51.688;7.130;2023-08-01T08:01:02;15.97;;;10.33;;
15616;SDS011;7908;51.688;7.130;2023-08-01T08:03:38;16.17;;;9.90;;
15616;SDS011;7908;51.688;7.130;2023-08-01T08:06:10;14.97;;;10.00;;
15616;SDS011;7908;51.688;7.130;2023-08-01T08:08:39;13.77;;;9.93;;
15616;SDS011;7908;51.688;7.130;2023-08-01T08:11:09;19.20;;;10.57;;
15616;SDS011;7908;51.688;7.130;2023-08-01T08:13:39;15.10;;;9.97;;
15616;SDS011;7908;51.688;7.130;2023-08-01T08:16:11;13.83;;;9.10;;
15616;SDS011;7908;51.688;7.130;2023-08-01T08:18:44;13.60;;;9.60;;
15616;SDS011;7908;51.688;7.130;2023-08-01T08:21:13;15.97;;;9.40;;
15616;SDS011;7908;51.688;7.130;2023-08-01T08:23:42;12.20;;;8.70;;
15616;SDS011;7908;51.688;7.130;2023-08-01T08:26:15;9.83;;;6.97;;
15616;SDS011;7908;51.688;7.130;2023-08-01T08:28:46;12.33;;;7.20;;
15616;SDS011;7908;51.688;7.130;2023-08-01T08:31:18;8.93;;;6.83;;
15616;SDS011;7908;51.688;7.130;2023-08-01T08:33:55;11.37;;;6.50;;
15616;SDS011;7908;51.688;7.130;2023-08-01T08:36:28;11.67;;;6.37;;
15616;SDS011;7908;51.688;7.130;2023-08-01T08:38:57;9.27;;;6.00;;
15616;SDS011;7908;51.688;7.130;2023-08-01T08:41:27;9.00;;;6.20;;
15616;SDS011;7908;51.688;7.130;2023-08-01T08:44:02;9.50;;;6.10;;
15616;SDS011;7908;51.688;7.130;2023-08-01T08:46:37;10.77;;;6.33;;
15616;SDS011;7908;51.688;7.130;2023-08-01T08:49:15;12.93;;;6.57;;
15616;SDS011;7908;51.688;7.130;2023-08-01T08:51:49;11.73;;;6.17;;
15616;SDS011;7908;51.688;7.130;2023-08-01T08:54:18;12.03;;;6.33;;
15616;SDS011;7908;51.688;7.130;2023-08-01T08:56:48;8.60;;;6.03;;
15616;SDS011;7908;51.688;7.130;2023-08-01T08:59:26;8.57;;;5.63;;
15616;SDS011;7908;51.688;7.130;2023-08-01T09:02:01;10.37;;;6.00;;
15616;SDS011;7908;51.688;7.130;2023-08-01T09:04:34;9.53;;;5.03;;
15616;SDS011;7908;51.688;7.130;2023-08-01T09:07:10;9.83;;;5.50;;
15616;SDS011;7908;51.688;7.130;2023-08-01T09:09:46;8.53;;;5.27;;
15616;SDS011;7908;51.688;7.130;2023-08-01T09:12:16;8.57;;;5.10;;
15616;SDS011;7908;51.688;7.130;2023-08-01T09:14:50;9.07;;;4.57;;
15616;SDS011;7908;51.688;7.130;2023-08-01T09:17:25;6.23;;;4.80;;
15616;SDS011;7908;51.688;7.130;2023-08-01T09:20:05;9.83;;;4.73;;
15616;SDS011;7908;51.688;7.130;2023-08-01T09:22:48;6.47;;;4.60;;
15616;SDS011;7908;51.688;7.130;2023-08-01T09:25:30;6.37;;;4.30;;
15616;SDS011;7908;51.688;7.130;2023-08-01T09:28:03;7.90;;;4.07;;
15616;SDS011;7908;51.688;7.130;2023-08-01T09:30:48;7.30;;;3.77;;
15616;SDS011;7908;51.688;7.130;2023-08-01T09:33:37;8.00;;;3.50;;
15616;SDS011;7908;51.688;7.130;2023-08-01T09:36:11;8.43;;;4.10;;
15616;SDS011;7908;51.688;7.130;2023-08-01T09:38:57;7.07;;;3.83;;
15616;SDS011;7908;51.688;7.130;2023-08-01T09:41:33;7.00;;;4.03;;
15616;SDS011;7908;51.688;7.130;2023-08-01T09:44:03;6.30;;;3.80;;
15616;SDS011;7908;51.688;7.130;2023-08-01T09:46:39;7.67;;;4.70;;
15616;SDS011;7908;51.688;7.130;2023-08-01T09:49:15;6.93;;;4.20;;
15616;SDS011;7908;51.688;7.130;2023-08-01T09:51:48;6.90;;;4.73;;
15616;SDS011;7908;51.688;7.130;2023-08-01T09:54:20;9.67;;;4.80;;
15616;SDS011;7908;51.688;7.130;2023-08-01T09:56:54;5.63;;;4.47;;
15616;SDS011;7908;51.688;7.130;2023-08-01T09:59:26;8.00;;;5.17;;
15616;SDS011;7908;51.688;7.130;2023-08-01T10:02:02;8.13;;;5.07;;
15616;SDS011;7908;51.688;7.130;2023-08-01T10:04:40;6.57;;;5.00;;
15616;SDS011;7908;51.688;7.130;2023-08-01T10:07:23;7.40;;;4.60;;
15616;SDS011;7908;51.688;7.130;2023-08-01T10:09:58;7.57;;;4.80;;
15616;SDS011;7908;51.688;7.130;2023-08-01T10:12:31;8.30;;;4.43;;
15616;SDS011;7908;51.688;7.130;2023-08-01T10:15:07;11.50;;;5.30;;
15616;SDS011;7908;51.688;7.130;2023-08-01T10:17:41;7.40;;;4.83;;
15616;SDS011;7908;51.688;7.130;2023-08-01T10:20:20;8.33;;;4.80;;
15616;SDS011;7908;51.688;7.130;2023-08-01T10:22:51;5.93;;;4.33;;
15616;SDS011;7908;51.688;7.130;2023-08-01T10:25:23;8.47;;;4.10;;
15616;SDS011;7908;51.688;7.130;2023-08-01T10:28:01;5.30;;;3.73;;
15616;SDS011;7908;51.688;7.130;2023-08-01T10:30:37;6.47;;;3.63;;
15616;SDS011;7908;51.688;7.130;2023-08-01T10:33:11;6.90;;;3.90;;
15616;SDS011;7908;51.688;7.130;2023-08-01T10:35:42;10.37;;;3.73;;
15616;SDS011;7908;51.688;7.130;2023-08-01T10:38:15;5.87;;;3.20;;
15616;SDS011;7908;51.688;7.130;2023-08-01T10:40:46;5.93;;;3.83;;
15616;SDS011;7908;51.688;7.130;2023-08-01T10:43:20;9.97;;;3.87;;
15616;SDS011;7908;51.688;7.130;2023-08-01T10:46:00;4.80;;;4.10;;
15616;SDS011;7908;51.688;7.130;2023-08-01T10:48:51;5.93;;;3.70;;
15616;SDS011;7908;51.688;7.130;2023-08-01T10:51:22;4.73;;;3.57;;
15616;SDS011;7908;51.688;7.130;2023-08-01T10:54:17;6.43;;;3.60;;
15616;SDS011;7908;51.688;7.130;2023-08-01T10:56:59;5.13;;;3.10;;
15616;SDS011;7908;51.688;7.130;2023-08-01T10:59:34;7.03;;;3.20;;
15616;SDS011;7908;51.688;7.130;2023-08-01T11:02:07;4.17;;;2.63;;
15616;SDS011;7908;51.688;7.130;2023-08-01T11:04:40;4.57;;;3.10;;
15616;SDS011;7908;51.688;7.130;2023-08-01T11:07:16;4.27;;;3.13;;
15616;SDS011;7908;51.688;7.130;2023-08-01T11:09:48;5.30;;;2.97;;
15616;SDS011;7908;51.688;7.130;2023-08-01T11:12:18;4.20;;;3.03;;
15616;SDS011;7908;51.688;7.130;2023-08-01T11:14:49;6.67;;;3.03;;
15616;SDS011;7908;51.688;7.130;2023-08-01T11:17:18;4.63;;;2.90;;
15616;SDS011;7908;51.688;7.130;2023-08-01T11:19:59;5.00;;;2.77;;
15616;SDS011;7908;51.688;7.130;2023-08-01T11:22:36;4.10;;;2.50;;
15616;SDS011;7908;51.688;7.130;2023-08-01T11:25:08;7.73;;;2.90;;
15616;SDS011;7908;51.688;7.130;2023-08-01T11:27:45;6.57;;;2.50;;
15616;SDS011;7908;51.688;7.130;2023-08-01T11:30:16;7.10;;;2.47;;
15616;SDS011;7908;51.688;7.130;2023-08-01T11:32:46;4.33;;;2.33;;
15616;SDS011;7908;51.688;7.130;2023-08-01T11:35:19;4.57;;;2.70;;
15616;SDS011;7908;51.688;7.130;2023-08-01T11:37:50;6.03;;;2.50;;
15616;SDS011;7908;51.688;7.130;2023-08-01T11:40:21;6.27;;;2.27;;
15616;SDS011;7908;51.688;7.130;2023-08-01T11:42:56;4.63;;;2.10;;
15616;SDS011;7908;51.688;7.130;2023-08-01T11:45:25;4.53;;;2.60;;
15616;SDS011;7908;51.688;7.130;2023-08-01T11:47:58;7.90;;;2.30;;
15616;SDS011;7908;51.688;7.130;2023-08-01T11:50:30;4.77;;;2.10;;
15616;SDS011;7908;51.688;7.130;2023-08-01T11:53:07;4.57;;;1.80;;
15616;SDS011;7908;51.688;7.130;2023-08-01T11:55:46;3.20;;;1.90;;
15616;SDS011;7908;51.688;7.130;2023-08-01T11:58:27;5.63;;;1.88;;
15616;SDS011;7908;51.688;7.130;2023-08-01T12:01:04;4.90;;;2.10;;
15616;SDS011;7908;51.688;7.130;2023-08-01T12:03:45;4.82;;;1.95;;
15616;SDS011;7908;51.688;7.130;2023-08-01T12:06:22;5.32;;;1.90;;
15616;SDS011;7908;51.688;7.130;2023-08-01T12:08:52;3.90;;;1.80;;
15616;SDS011;7908;51.688;7.130;2023-08-01T12:11:29;7.03;;;2.37;;
15616;SDS011;7908;51.688;7.130;2023-08-01T12:14:13;4.33;;;1.60;;
15616;SDS011;7908;51.688;7.130;2023-08-01T12:16:44;3.43;;;1.70;;
15616;SDS011;7908;51.688;7.130;2023-08-01T12:19:23;5.50;;;2.20;;
15616;SDS011;7908;51.688;7.130;2023-08-01T12:21:54;3.97;;;1.98;;
15616;SDS011;7908;51.688;7.130;2023-08-01T12:24:24;4.15;;;1.83;;
15616;SDS011;7908;51.688;7.130;2023-08-01T12:26:54;5.15;;;2.00;;
15616;SDS011;7908;51.688;7.130;2023-08-01T12:29:25;3.55;;;1.98;;
15616;SDS011;7908;51.688;7.130;2023-08-01T12:32:01;2.65;;;1.50;;
15616;SDS011;7908;51.688;7.130;2023-08-01T12:34:34;2.78;;;1.52;;
15616;SDS011;7908;51.688;7.130;2023-08-01T12:37:43;3.70;;;1.60;;
15616;SDS011;7908;51.688;7.130;2023-08-01T12:40:13;5.68;;;1.65;;
15616;SDS011;7908;51.688;7.130;2023-08-01T12:42:46;5.15;;;2.08;;
15616;SDS011;7908;51.688;7.130;2023-08-01T12:45:16;4.53;;;1.67;;
15616;SDS011;7908;51.688;7.130;2023-08-01T12:47:56;3.25;;;1.80;;
15616;SDS011;7908;51.688;7.130;2023-08-01T12:50:30;7.55;;;2.00;;
15616;SDS011;7908;51.688;7.130;2023-08-01T12:53:04;5.45;;;1.67;;
15616;SDS011;7908;51.688;7.130;2023-08-01T12:55:34;6.80;;;1.70;;
15616;SDS011;7908;51.688;7.130;2023-08-01T12:58:10;4.53;;;2.05;;
15616;SDS011;7908;51.688;7.130;2023-08-01T13:01:05;6.13;;;1.90;;
15616;SDS011;7908;51.688;7.130;2023-08-01T13:03:37;4.72;;;2.90;;
15616;SDS011;7908;51.688;7.130;2023-08-01T13:06:12;7.97;;;4.63;;
15616;SDS011;7908;51.688;7.130;2023-08-01T13:08:43;6.43;;;2.17;;
15616;SDS011;7908;51.688;7.130;2023-08-01T13:11:17;5.95;;;2.08;;
15616;SDS011;7908;51.688;7.130;2023-08-01T13:13:46;4.60;;;1.67;;
15616;SDS011;7908;51.688;7.130;2023-08-01T13:16:16;4.82;;;1.60;;
15616;SDS011;7908;51.688;7.130;2023-08-01T13:18:55;5.47;;;1.70;;
15616;SDS011;7908;51.688;7.130;2023-08-01T13:21:24;3.53;;;1.55;;
15616;SDS011;7908;51.688;7.130;2023-08-01T13:23:57;4.25;;;2.30;;
15616;SDS011;7908;51.688;7.130;2023-08-01T13:26:36;3.38;;;1.75;;
15616;SDS011;7908;51.688;7.130;2023-08-01T13:29:08;4.20;;;1.65;;
15616;SDS011;7908;51.688;7.130;2023-08-01T13:31:37;4.97;;;2.15;;
15616;SDS011;7908;51.688;7.130;2023-08-01T13:34:10;5.35;;;1.95;;
15616;SDS011;7908;51.688;7.130;2023-08-01T13:36:43;6.15;;;1.40;;
15616;SDS011;7908;51.688;7.130;2023-08-01T13:39:20;4.15;;;1.33;;
15616;SDS011;7908;51.688;7.130;2023-08-01T13:41:49;3.20;;;1.55;;
15616;SDS011;7908;51.688;7.130;2023-08-01T13:44:20;3.83;;;1.45;;
15616;SDS011;7908;51.688;7.130;2023-08-01T13:46:54;6.45;;;1.73;;
15616;SDS011;7908;51.688;7.130;2023-08-01T13:49:26;5.45;;;1.80;;
15616;SDS011;7908;51.688;7.130;2023-08-01T13:51:56;3.83;;;1.35;;
15616;SDS011;7908;51.688;7.130;2023-08-01T13:54:32;7.88;;;2.40;;
15616;SDS011;7908;51.688;7.130;2023-08-01T13:57:17;3.95;;;1.58;;
15616;SDS011;7908;51.688;7.130;2023-08-01T13:59:47;9.80;;;2.00;;
15616;SDS011;7908;51.688;7.130;2023-08-01T14:02:35;4.30;;;1.90;;
15616;SDS011;7908;51.688;7.130;2023-08-01T14:05:08;4.38;;;1.90;;
15616;SDS011;7908;51.688;7.130;2023-08-01T14:07:39;4.68;;;1.80;;
15616;SDS011;7908;51.688;7.130;2023-08-01T14:10:12;5.40;;;2.00;;
15616;SDS011;7908;51.688;7.130;2023-08-01T14:12:49;6.13;;;2.40;;
15616;SDS011;7908;51.688;7.130;2023-08-01T14:15:19;6.72;;;2.30;;
15616;SDS011;7908;51.688;7.130;2023-08-01T14:17:49;5.85;;;1.67;;
15616;SDS011;7908;51.688;7.130;2023-08-01T14:20:22;4.22;;;1.58;;
15616;SDS011;7908;51.688;7.130;2023-08-01T14:22:54;2.88;;;1.45;;
15616;SDS011;7908;51.688;7.130;2023-08-01T14:25:27;5.38;;;1.60;;
15616;SDS011;7908;51.688;7.130;2023-08-01T14:27:58;3.88;;;1.48;;
15616;SDS011;7908;51.688;7.130;2023-08-01T14:30:28;8.27;;;1.98;;
15616;SDS011;7908;51.688;7.130;2023-08-01T14:32:59;4.55;;;1.63;;
15616;SDS011;7908;51.688;7.130;2023-08-01T14:35:32;8.10;;;2.20;;
15616;SDS011;7908;51.688;7.130;2023-08-01T14:38:06;3.45;;;1.52;;
15616;SDS011;7908;51.688;7.130;2023-08-01T14:40:39;4.50;;;1.58;;
15616;SDS011;7908;51.688;7.130;2023-08-01T14:43:18;3.15;;;1.20;;
15616;SDS011;7908;51.688;7.130;2023-08-01T14:45:51;4.70;;;1.50;;
15616;SDS011;7908;51.688;7.130;2023-08-01T14:48:23;2.97;;;1.20;;
15616;SDS011;7908;51.688;7.130;2023-08-01T14:50:52;4.35;;;1.30;;
15616;SDS011;7908;51.688;7.130;2023-08-01T14:53:53;4.38;;;1.25;;
15616;SDS011;7908;51.688;7.130;2023-08-01T14:56:33;5.53;;;1.42;;
15616;SDS011;7908;51.688;7.130;2023-08-01T14:59:12;4.32;;;1.63;;
15616;SDS011;7908;51.688;7.130;2023-08-01T15:01:44;6.00;;;1.45;;
15616;SDS011;7908;51.688;7.130;2023-08-01T15:04:14;3.88;;;1.50;;
15616;SDS011;7908;51.688;7.130;2023-08-01T15:06:44;4.55;;;1.52;;
15616;SDS011;7908;51.688;7.130;2023-08-01T15:09:16;3.90;;;2.03;;
15616;SDS011;7908;51.688;7.130;2023-08-01T15:11:51;5.75;;;1.90;;
15616;SDS011;7908;51.688;7.130;2023-08-01T15:14:22;2.95;;;1.60;;
15616;SDS011;7908;51.688;7.130;2023-08-01T15:16:54;4.13;;;1.70;;
15616;SDS011;7908;51.688;7.130;2023-08-01T15:19:29;5.32;;;1.70;;
15616;SDS011;7908;51.688;7.130;2023-08-01T15:21:58;3.63;;;1.58;;